Time;durP1;ratioP1;P1;durP2;ratioP2;P2;SDS_P1;SDS_P2;PMS_P1;PMS_P2;Temp;Humidity;BMP_temperature;BMP_pressure;BME280_temperature;BME280_humidity;BME280_pressure;Samples;Min_cycle;Max_cycle;Signal;HPM_P1;HPM_P2
2023/08/26 00:01:05;;;;;;;;;;;25.30;48.80;;;24.84;47.87;100487.50;12137295;19;19922;-83
2023/08/26 00:05:07;;;;;;;;;;;25.30;48.80;;;24.86;48.05;100501.50;12132361;19;20500;-83
2023/08/26 00:09:08;;;;;;;;;;;25.20;48.80;;;24.81;48.41;100505.75;12133302;19;19931;-83
2023/08/26 00:13:10;;;;;;;;;;;25.20;48.90;;;24.66;48.16;100482.53;12132257;19;20260;-83
2023/08/26 00:17:11;;;;;;;;;;;25.20;48.90;;;24.75;47.93;100495.81;12132127;19;19930;-83
2023/08/26 00:21:14;;;;;;;;;;;25.20;48.90;;;24.75;48.06;100493.13;12134290;19;19923;-83
2023/08/26 00:25:16;;;;;;;;;;;25.10;49.00;;;24.71;48.43;100479.31;12128118;19;19919;-81
2023/08/26 00:29:18;;;;;;;;;;;25.20;49.20;;;24.73;48.30;100495.97;12130785;19;20002;-81
2023/08/26 00:33:19;;;;;;;;;;;25.10;49.00;;;24.67;48.32;100496.72;12132291;19;19923;-83
2023/08/26 00:37:21;;;;;;;;;;;25.10;49.10;;;24.65;48.29;100480.03;12127489;19;19941;-82
2023/08/26 00:41:23;;;;;;;;;;;25.10;49.10;;;24.63;48.12;100477.56;12128346;19;20335;-82
2023/08/26 00:45:24;;;;;;;;;;;25.10;49.00;;;24.62;48.19;100472.38;12126127;19;19927;-81
2023/08/26 00:49:26;;;;;;;;;;;25.10;49.00;;;24.54;48.19;100461.78;12131371;19;19919;-82
2023/08/26 00:53:27;;;;;;;;;;;25.00;48.90;;;24.50;48.51;100448.00;12130045;19;19926;-82
2023/08/26 00:57:29;;;;;;;;;;;25.10;49.00;;;24.56;48.21;100459.78;12127800;19;19939;-81
2023/08/26 01:01:32;;;;;;;;;;;25.00;49.00;;;24.45;48.53;100440.53;12130457;19;19930;-81
2023/08/26 01:05:34;;;;;;;;;;;25.00;49.10;;;24.47;48.43;100453.69;12128521;19;20494;-82
2023/08/26 01:09:37;;;;;;;;;;;25.00;49.10;;;24.29;48.54;100446.81;12130115;19;20690;-82
2023/08/26 01:14:06;;;;;;;;;;;24.90;49.00;;;24.29;48.31;100462.00;12129048;19;19929;-82
2023/08/26 01:18:08;;;;;;;;;;;24.80;49.00;;;24.20;48.31;100461.25;12136503;19;19949;-82
2023/08/26 01:22:10;;;;;;;;;;;24.70;49.00;;;24.19;48.53;100467.56;12141985;19;19950;-82
2023/08/26 01:26:12;;;;;;;;;;;24.70;49.10;;;24.07;48.43;100461.03;12138971;19;19922;-82
2023/08/26 01:30:14;;;;;;;;;;;24.60;49.10;;;24.12;48.45;100466.66;12137942;19;19994;-82
2023/08/26 01:34:26;;;;;;;;;;;24.60;49.10;;;23.96;48.37;100434.78;12139735;19;19911;-82
2023/08/26 01:38:29;;;;;;;;;;;24.60;49.30;;;24.02;48.61;100450.88;12141587;19;19923;-82
2023/08/26 01:42:31;;;;;;;;;;;24.50;49.20;;;23.99;48.35;100461.09;12142111;19;20367;-82
2023/08/26 01:46:37;;;;;;;;;;;24.50;49.30;;;23.90;48.46;100454.13;12140880;19;20469;-82
2023/08/26 01:50:39;;;;;;;;;;;24.40;49.20;;;23.89;48.44;100455.16;12141698;19;20734;-81
2023/08/26 01:54:40;;;;;;;;;;;24.40;49.60;;;23.87;48.93;100452.66;12138842;19;19914;-82
2023/08/26 01:58:42;;;;;;;;;;;24.40;49.30;;;23.81;48.80;100454.22;12142090;19;20263;-82
2023/08/26 02:02:44;;;;;;;;;;;24.30;49.40;;;23.78;48.63;100448.41;12143847;19;20267;-82
2023/08/26 02:06:45;;;;;;;;;;;24.30;49.80;;;23.74;48.72;100444.44;12138541;19;20942;-82
2023/08/26 02:10:54;;;;;;;;;;;24.20;49.40;;;23.68;48.73;100435.25;12142412;19;19915;-82
2023/08/26 02:14:55;;;;;;;;;;;24.20;49.50;;;23.59;48.70;100423.00;12138337;19;19919;-81
2023/08/26 02:18:57;;;;;;;;;;;24.10;49.60;;;23.64;49.07;100426.81;12141690;19;20778;-82
2023/08/26 02:22:58;;;;;;;;;;;24.10;49.60;;;23.64;49.00;100420.66;12142381;19;20367;-81
2023/08/26 02:27:00;;;;;;;;;;;24.10;49.70;;;23.63;49.03;100433.16;12135503;19;19937;-82
2023/08/26 02:31:05;;;;;;;;;;;24.10;49.70;;;23.60;48.94;100411.31;12139986;19;20652;-82
2023/08/26 02:35:06;;;;;;;;;;;24.10;50.20;;;23.64;49.03;100407.31;12136558;19;19919;-82
2023/08/26 02:39:07;;;;;;;;;;;24.10;50.10;;;23.61;48.94;100408.50;12139873;19;20258;-82
2023/08/26 02:43:09;;;;;;;;;;;24.10;49.80;;;23.60;48.81;100408.66;12145116;19;19966;-82
2023/08/26 02:47:11;;;;;;;;;;;24.00;49.80;;;23.47;48.97;100387.13;12137271;19;20711;-82
2023/08/26 02:51:13;;;;;;;;;;;24.00;49.80;;;23.47;49.10;100392.44;12140453;19;19923;-82
2023/08/26 02:55:14;;;;;;;;;;;24.00;49.80;;;23.50;49.20;100411.56;12135899;19;20001;-82
2023/08/26 02:59:16;;;;;;;;;;;24.00;50.00;;;23.44;49.06;100406.97;12139770;19;19927;-82
2023/08/26 03:03:18;;;;;;;;;;;24.00;49.90;;;23.44;49.47;100406.09;12138878;19;20014;-81
2023/08/26 03:07:19;;;;;;;;;;;23.90;50.30;;;23.40;49.23;100392.31;12138033;19;20006;-82
2023/08/26 03:11:22;;;;;;;;;;;23.90;50.00;;;23.35;49.35;100386.69;12139136;19;20866;-81
2023/08/26 03:15:28;;;;;;;;;;;23.90;50.10;;;23.30;49.47;100384.53;12133858;19;19923;-82
2023/08/26 03:19:31;;;;;;;;;;;23.80;50.00;;;23.34;49.14;100388.53;12141047;19;19919;-82
2023/08/26 03:23:34;;;;;;;;;;;23.80;50.10;;;23.27;49.29;100387.56;12136842;19;20471;-81
2023/08/26 03:27:36;;;;;;;;;;;23.80;50.10;;;23.28;49.49;100402.56;12134198;19;19919;-81
2023/08/26 03:31:38;;;;;;;;;;;23.80;50.10;;;23.17;49.40;100387.78;12138822;19;20660;-82
2023/08/26 03:35:42;;;;;;;;;;;23.80;50.30;;;23.31;49.65;100406.72;12136462;19;20860;-81
2023/08/26 03:39:45;;;;;;;;;;;23.80;50.30;;;23.28;49.33;100399.91;12137593;19;20267;-82
2023/08/26 03:43:46;;;;;;;;;;;23.80;50.50;;;23.21;49.32;100393.59;12137840;19;19960;-82
2023/08/26 03:47:48;;;;;;;;;;;23.80;50.40;;;23.24;49.55;100398.56;12138841;19;20857;-82
2023/08/26 03:51:52;;;;;;;;;;;23.80;50.30;;;23.30;49.71;100408.50;12136277;19;19922;-82
2023/08/26 03:55:53;;;;;;;;;;;23.80;50.40;;;23.24;49.73;100392.41;12133437;19;20295;-82
2023/08/26 03:59:55;;;;;;;;;;;23.80;50.50;;;23.30;49.88;100413.84;12134667;19;19930;-82
2023/08/26 04:03:58;;;;;;;;;;;23.80;50.50;;;23.25;49.65;100421.56;12137246;19;19922;-82
2023/08/26 04:08:00;;;;;;;;;;;23.80;50.80;;;23.27;49.89;100408.88;12131757;19;20735;-82
2023/08/26 04:12:02;;;;;;;;;;;23.80;50.40;;;23.23;49.55;100390.78;12133796;19;19927;-81
2023/08/26 04:16:04;;;;;;;;;;;23.70;50.70;;;23.11;49.49;100363.69;12130382;19;20673;-81
2023/08/26 04:20:06;;;;;;;;;;;23.70;50.90;;;23.05;50.02;100373.19;12135243;19;20194;-82
2023/08/26 04:24:07;;;;;;;;;;;23.60;50.70;;;22.99;49.96;100389.06;12136055;19;20282;-82
2023/08/26 04:28:11;;;;;;;;;;;23.60;50.70;;;22.98;50.09;100382.91;12134302;19;20296;-82
2023/08/26 04:32:13;;;;;;;;;;;23.50;50.70;;;22.99;49.85;100391.72;12135071;19;20659;-81
2023/08/26 04:36:14;;;;;;;;;;;23.50;50.70;;;23.07;49.90;100386.34;12131403;19;20716;-81
2023/08/26 04:40:18;;;;;;;;;;;23.60;50.70;;;23.04;49.72;100378.72;12135249;19;19923;-81
2023/08/26 04:44:20;;;;;;;;;;;23.60;50.80;;;22.93;49.98;100356.75;12131716;19;19934;-82
2023/08/26 04:48:22;;;;;;;;;;;23.50;50.40;;;22.92;50.13;100360.41;12136812;19;20056;-82
2023/08/26 04:52:24;;;;;;;;;;;23.50;51.00;;;22.68;49.82;100331.22;12146934;19;20271;-82
2023/08/26 04:56:27;;;;;;;;;;;23.50;50.90;;;22.97;49.98;100392.72;12140469;19;19930;-82
2023/08/26 05:00:28;;;;;;;;;;;23.50;50.80;;;22.96;50.18;100406.22;12147283;19;21307;-82
2023/08/26 05:04:30;;;;;;;;;;;23.50;51.10;;;22.93;49.88;100402.03;12150389;19;20467;-84
2023/08/26 05:08:32;;;;;;;;;;;23.50;51.00;;;22.95;50.08;100418.69;12149090;19;20024;-84
2023/08/26 05:12:34;;;;;;;;;;;23.50;50.90;;;23.00;50.43;100433.31;12148028;19;20339;-84
2023/08/26 05:16:36;;;;;;;;;;;23.50;51.20;;;22.96;50.37;100433.66;12147531;19;20279;-84
2023/08/26 05:20:42;;;;;;;;;;;23.50;51.20;;;22.97;50.46;100437.16;12148368;19;20276;-84
2023/08/26 05:24:43;;;;;;;;;;;23.50;51.50;;;23.02;50.11;100442.81;12144632;19;19926;-84
2023/08/26 05:28:45;;;;;;;;;;;23.60;51.20;;;23.01;50.38;100434.97;12149139;19;19938;-84
2023/08/26 05:32:47;;;;;;;;;;;23.60;51.10;;;22.99;50.14;100432.50;12146887;19;19914;-84
2023/08/26 05:36:49;;;;;;;;;;;23.60;51.10;;;23.00;50.19;100444.81;12145010;19;20277;-84
2023/08/26 05:40:50;;;;;;;;;;;23.60;51.30;;;22.95;50.33;100445.31;12149898;19;19946;-83
2023/08/26 05:44:52;;;;;;;;;;;23.60;51.60;;;22.92;50.35;100461.59;12145451;19;19956;-86
2023/08/26 05:48:54;;;;;;;;;;;23.60;51.50;;;22.98;50.49;100478.78;12147178;19;19915;-86
2023/08/26 05:52:55;;;;;;;;;;;23.60;51.50;;;23.04;50.82;100480.75;12142909;19;20559;-85
2023/08/26 05:56:57;;;;;;;;;;;23.60;51.80;;;23.14;50.38;100486.72;12142875;19;19994;-90
2023/08/26 06:00:59;;;;;;;;;;;23.70;52.20;;;23.12;50.78;100486.06;12142909;19;19930;-89
2023/08/26 06:05:00;;;;;;;;;;;23.80;51.80;;;23.16;50.77;100497.19;12138589;19;20203;-89
2023/08/26 06:09:02;;;;;;;;;;;23.80;51.80;;;23.19;50.58;100497.66;12144129;19;20735;-89
2023/08/26 06:13:05;;;;;;;;;;;23.80;52.00;;;23.27;50.93;100490.66;12143473;19;20279;-89
2023/08/26 06:17:07;;;;;;;;;;;23.80;52.50;;;23.20;51.00;100479.88;12138915;19;20462;-88
2023/08/26 06:21:08;;;;;;;;;;;23.90;52.10;;;23.25;51.07;100493.50;12144575;19;19926;-89
2023/08/26 06:25:10;;;;;;;;;;;23.90;52.00;;;23.33;50.81;100497.94;12144449;19;19930;-89
2023/08/26 06:29:16;;;;;;;;;;;23.90;52.10;;;23.32;51.07;100485.63;12149190;19;19927;-89
2023/08/26 06:33:18;;;;;;;;;;;24.00;52.30;;;23.45;50.74;100523.22;12143397;19;20625;-89
2023/08/26 06:37:19;;;;;;;;;;;24.00;52.10;;;23.50;51.05;100526.19;12142910;19;19923;-92
2023/08/26 06:41:22;;;;;;;;;;;24.10;52.00;;;23.55;50.82;100529.19;12134997;19;19927;-91
2023/08/26 06:45:23;;;;;;;;;;;24.20;52.20;;;23.60;51.29;100548.16;12141448;19;20203;-89
2023/08/26 06:49:25;;;;;;;;;;;24.20;52.30;;;23.63;51.10;100547.78;12147977;19;19932;-89
2023/08/26 06:53:27;;;;;;;;;;;24.30;52.50;;;23.47;51.07;100507.06;12144410;19;19931;-88
2023/08/26 06:57:28;;;;;;;;;;;24.30;52.80;;;23.70;51.12;100557.75;12143629;19;19922;-88
2023/08/26 07:01:31;;;;;;;;;;;24.40;52.40;;;23.71;50.95;100554.97;12144328;19;19950;-88
2023/08/26 07:05:32;;;;;;;;;;;24.40;53.00;;;23.70;51.17;100553.25;12145255;19;19918;-88
2023/08/26 07:09:34;;;;;;;;;;;24.50;52.50;;;23.72;51.28;100561.94;12144828;19;19919;-88
2023/08/26 07:13:35;;;;;;;;;;;24.40;53.10;;;23.77;51.00;100564.09;12142498;19;19938;-89
2023/08/26 07:17:37;;;;;;;;;;;24.50;52.80;;;23.83;51.27;100566.06;12145407;19;19949;-88
2023/08/26 07:21:38;;;;;;;;;;;24.50;52.70;;;23.88;51.52;100555.69;12143305;19;20228;-89
2023/08/26 07:25:41;;;;;;;;;;;24.50;52.40;;;23.94;51.52;100559.50;12141287;19;19952;-88
2023/08/26 07:29:43;;;;;;;;;;;24.60;52.60;;;23.86;51.14;100525.69;12146030;19;20495;-88
2023/08/26 07:33:44;;;;;;;;;;;24.60;53.00;;;23.81;51.37;100536.06;12140373;19;20889;-88
2023/08/26 07:37:46;;;;;;;;;;;24.70;53.00;;;24.01;51.61;100560.47;12142766;19;19923;-89
2023/08/26 07:41:47;;;;;;;;;;;24.70;53.10;;;24.02;51.28;100551.44;12141619;19;20197;-89
2023/08/26 07:45:49;;;;;;;;;;;24.70;53.60;;;24.12;51.34;100568.06;12138585;19;20172;-88
2023/08/26 07:49:50;;;;;;;;;;;24.80;53.40;;;24.12;51.85;100560.03;12142065;19;20356;-89
2023/08/26 07:53:52;;;;;;;;;;;24.80;54.10;;;23.97;51.38;100522.63;12140245;19;20650;-89
2023/08/26 07:57:54;;;;;;;;;;;24.90;53.40;;;24.20;51.51;100551.97;12131576;19;20176;-88
2023/08/26 08:01:55;;;;;;;;;;;25.00;54.60;;;24.20;51.70;100561.84;12135612;19;20260;-89
2023/08/26 08:05:57;;;;;;;;;;;25.00;54.00;;;24.31;51.89;100577.44;12139476;19;19926;-89
2023/08/26 08:09:59;;;;;;;;;;;25.00;54.30;;;24.16;51.71;100548.00;12139667;19;20311;-89
2023/08/26 08:14:01;;;;;;;;;;;25.00;54.20;;;24.32;51.78;100564.91;12137371;19;20773;-89
2023/08/26 08:18:02;;;;;;;;;;;25.10;54.20;;;24.38;51.78;100561.50;12136153;19;20540;-89
2023/08/26 08:22:04;;;;;;;;;;;25.10;54.10;;;24.33;51.79;100554.06;12140076;19;20717;-89
2023/08/26 08:26:06;;;;;;;;;;;25.10;53.60;;;24.44;51.86;100560.84;12136915;19;20219;-88
2023/08/26 08:30:08;;;;;;;;;;;25.10;53.80;;;24.43;51.73;100553.81;12138298;19;20359;-88
2023/08/26 08:34:09;;;;;;;;;;;25.10;53.50;;;24.48;51.69;100554.13;12133806;19;19919;-88
2023/08/26 08:38:14;;;;;;;;;;;25.20;53.40;;;24.58;51.84;100581.41;12132500;19;20601;-89
2023/08/26 08:42:16;;;;;;;;;;;25.20;53.60;;;24.61;51.75;100578.38;12135403;19;19937;-89
2023/08/26 08:46:19;;;;;;;;;;;25.20;53.50;;;24.58;51.73;100562.72;12132092;19;20259;-88
2023/08/26 08:50:21;;;;;;;;;;;25.30;53.70;;;24.57;51.75;100558.38;12136205;19;20020;-89
2023/08/26 08:54:24;;;;;;;;;;;25.30;53.40;;;24.70;51.88;100561.25;12135400;19;20256;-88
2023/08/26 08:58:27;;;;;;;;;;;25.30;54.50;;;24.77;52.08;100577.41;12133328;19;19918;-88
2023/08/26 09:02:29;;;;;;;;;;;25.40;54.10;;;24.78;52.16;100559.53;12129997;19;20726;-87
2023/08/26 09:06:30;;;;;;;;;;;25.50;55.30;;;24.91;52.18;100579.28;12132759;19;20573;-87
2023/08/26 09:10:32;;;;;;;;;;;25.60;54.30;;;24.91;52.41;100573.91;12141477;19;19930;-87
2023/08/26 09:14:34;;;;;;;;;;;25.60;55.00;;;24.98;52.20;100570.50;12135706;19;19927;-86
2023/08/26 09:18:39;;;;;;;;;;;25.60;54.20;;;25.01;52.46;100564.84;12142463;19;20355;-86
2023/08/26 09:22:41;;;;;;;;;;;25.70;55.40;;;25.07;52.27;100545.38;12142282;19;19942;-86
2023/08/26 09:26:58;;;;;;;;;;;25.80;54.40;;;25.06;52.45;100544.56;12136786;19;20951;-86
2023/08/26 09:31:04;;;;;;;;;;;25.80;55.10;;;25.15;52.34;100559.50;12137631;19;19927;-87
2023/08/26 09:35:14;;;;;;;;;;;25.90;54.60;;;25.27;52.25;100569.75;12133034;19;20362;-86
2023/08/26 09:39:16;;;;;;;;;;;25.90;54.30;;;25.32;52.26;100554.78;12149419;19;19941;-87
2023/08/26 09:43:18;;;;;;;;;;;26.10;54.50;;;25.50;52.69;100570.47;12147396;19;19926;-86
2023/08/26 09:47:19;;;;;;;;;;;26.20;54.30;;;25.54;52.50;100561.03;12142913;19;20009;-87
2023/08/26 09:51:28;;;;;;;;;;;26.30;54.00;;;25.56;52.27;100575.06;12147909;19;20357;-87
2023/08/26 09:55:30;;;;;;;;;;;26.30;53.80;;;25.62;52.23;100576.16;12141422;19;19949;-87
2023/08/26 09:59:31;;;;;;;;;;;26.30;53.50;;;25.67;52.45;100588.97;12148339;19;19922;-87
2023/08/26 10:03:36;;;;;;;;;;;26.40;53.60;;;25.65;52.51;100581.13;12145581;19;19923;-87
2023/08/26 10:07:39;;;;;;;;;;;26.40;53.80;;;25.74;52.71;100584.56;12143210;19;19922;-89
2023/08/26 10:11:43;;;;;;;;;;;26.50;53.40;;;25.72;52.49;100566.00;12132204;19;19919;-87
2023/08/26 10:15:48;;;;;;;;;;;26.50;53.30;;;25.89;52.61;100582.69;12127567;19;19927;-87
2023/08/26 10:19:50;;;;;;;;;;;26.60;53.60;;;25.93;52.55;100589.34;12128940;19;20453;-87
2023/08/26 10:23:52;;;;;;;;;;;26.70;53.30;;;26.00;52.34;100594.75;12130001;19;19926;-88
2023/08/26 10:27:54;;;;;;;;;;;26.80;53.20;;;26.12;52.80;100587.06;12129135;19;20401;-87
2023/08/26 10:31:55;;;;;;;;;;;26.90;53.40;;;26.31;52.61;100578.41;12127566;19;19932;-86
2023/08/26 10:36:12;;;;;;;;;;;27.00;53.70;;;26.42;52.57;100577.06;12128292;19;19926;-87
2023/08/26 10:40:13;;;;;;;;;;;27.20;53.40;;;26.57;52.39;100588.56;12128022;19;19925;-89
2023/08/26 10:44:29;;;;;;;;;;;27.40;53.20;;;26.77;52.89;100586.03;12126097;19;19918;-88
2023/08/26 10:48:53;;;;;;;;;;;27.50;53.20;;;26.90;52.48;100594.19;12128346;19;19919;-87
2023/08/26 10:53:12;;;;;;;;;;;27.70;52.80;;;26.90;52.54;100588.81;12127836;19;19931;-87
2023/08/26 10:57:13;;;;;;;;;;;27.80;52.50;;;26.98;52.22;100589.66;12125549;19;19960;-88
2023/08/26 11:01:16;;;;;;;;;;;27.90;52.30;;;27.02;52.43;100580.22;12125432;19;19918;-88
2023/08/26 11:05:18;;;;;;;;;;;27.90;52.30;;;27.11;52.52;100579.03;12126675;19;19927;-88
2023/08/26 11:09:20;;;;;;;;;;;27.90;52.20;;;27.14;52.36;100576.81;12119921;19;19938;-88
2023/08/26 11:13:22;;;;;;;;;;;28.00;52.10;;;27.26;52.26;100579.78;12126038;19;19919;-87
2023/08/26 11:17:24;;;;;;;;;;;28.00;52.20;;;27.30;51.99;100569.50;12124615;19;19923;-87
2023/08/26 11:21:26;;;;;;;;;;;28.10;52.10;;;27.36;52.39;100572.22;12125778;19;19930;-87
2023/08/26 11:25:27;;;;;;;;;;;28.20;52.00;;;27.41;52.61;100562.72;12124585;19;20726;-87
2023/08/26 11:29:29;;;;;;;;;;;28.30;51.80;;;27.54;52.40;100576.22;12131744;19;19919;-87
2023/08/26 11:33:31;;;;;;;;;;;28.40;52.00;;;27.58;52.23;100564.06;12125227;19;19943;-86
2023/08/26 11:37:34;;;;;;;;;;;28.50;52.00;;;27.78;52.17;100566.81;12124559;19;19919;-87
2023/08/26 11:41:35;;;;;;;;;;;28.60;52.00;;;27.82;52.40;100551.19;12140412;19;20475;-87
2023/08/26 11:45:39;;;;;;;;;;;28.80;51.70;;;27.91;52.03;100533.84;12136661;19;19923;-87
2023/08/26 11:49:40;;;;;;;;;;;28.90;49.90;;;28.18;51.96;100575.00;12132557;19;19988;-86
2023/08/26 11:53:42;;;;;;;;;;;29.10;50.90;;;28.30;52.10;100575.22;12127010;19;20018;-85
2023/08/26 11:57:44;;;;;;;;;;;29.20;50.60;;;28.37;51.76;100576.88;12127999;19;20893;-87
2023/08/26 12:01:46;;;;;;;;;;;29.20;50.90;;;28.47;51.75;100587.25;12128194;19;20695;-86
2023/08/26 12:05:52;;;;;;;;;;;29.30;50.90;;;28.51;52.05;100583.09;12128054;19;20334;-86
2023/08/26 12:09:54;;;;;;;;;;;29.40;49.70;;;28.47;51.50;100563.06;12131315;19;20686;-87
2023/08/26 12:13:55;;;;;;;;;;;29.50;49.40;;;28.59;51.57;100580.22;12140713;19;20355;-87
2023/08/26 12:17:58;;;;;;;;;;;29.50;48.40;;;28.61;51.21;100578.16;12131195;19;19926;-88
2023/08/26 12:22:00;;;;;;;;;;;29.50;49.70;;;28.58;51.35;100573.19;12141586;19;20772;-87
2023/08/26 12:26:10;;;;;;;;;;;29.50;49.30;;;28.60;51.29;100573.81;12128786;19;20388;-87
2023/08/26 12:30:12;;;;;;;;;;;29.50;48.80;;;28.63;51.20;100578.78;12121038;19;19937;-88
2023/08/26 12:34:14;;;;;;;;;;;29.50;49.00;;;28.68;51.17;100586.25;12116812;19;19925;-87
2023/08/26 12:38:15;;;;;;;;;;;29.50;49.00;;;28.67;51.12;100571.13;12131802;19;20292;-87
2023/08/26 12:42:17;;;;;;;;;;;29.50;47.70;;;28.67;50.87;100571.94;12129057;19;19927;-87
2023/08/26 12:46:19;;;;;;;;;;;29.50;48.60;;;28.76;50.87;100571.72;12126571;19;19927;-88
2023/08/26 12:50:21;;;;;;;;;;;29.50;49.40;;;28.86;50.89;100588.28;12126474;19;19926;-87
2023/08/26 12:54:22;;;;;;;;;;;29.60;49.10;;;28.94;50.77;100576.47;12124187;19;19930;-87
2023/08/26 12:58:25;;;;;;;;;;;29.70;49.00;;;28.98;50.55;100580.41;12128553;19;19922;-88
2023/08/26 13:02:26;;;;;;;;;;;29.80;48.20;;;29.10;50.49;100592.19;12132060;19;20850;-87
2023/08/26 13:06:28;;;;;;;;;;;29.80;47.60;;;29.10;50.51;100579.56;12132685;19;20406;-87
2023/08/26 13:10:29;;;;;;;;;;;29.90;48.40;;;29.17;50.35;100584.13;12132540;19;19937;-86
2023/08/26 13:14:32;;;;;;;;;;;30.00;47.90;;;29.26;50.18;100580.16;12139465;19;19922;-85
2023/08/26 13:18:33;;;;;;;;;;;30.00;47.10;;;29.31;50.14;100583.06;12150379;19;19934;-84
2023/08/26 13:22:34;;;;;;;;;;;30.10;47.40;;;29.37;49.98;100565.25;12151959;19;20627;-85
2023/08/26 13:26:36;;;;;;;;;;;30.10;47.60;;;29.45;49.58;100578.44;12140157;19;20008;-86
2023/08/26 13:30:37;;;;;;;;;;;30.20;46.20;;;29.51;49.90;100593.75;12146542;19;19922;-85
2023/08/26 13:34:39;;;;;;;;;;;30.30;47.40;;;29.52;49.56;100596.22;12138301;19;20665;-85
2023/08/26 13:38:41;;;;;;;;;;;30.30;47.00;;;29.52;49.52;100595.41;12142612;19;19926;-86
2023/08/26 13:42:42;;;;;;;;;;;30.30;43.10;;;29.52;49.79;100590.84;12133030;19;20777;-85
2023/08/26 13:46:44;;;;;;;;;;;30.30;46.30;;;29.62;49.33;100600.31;12131265;19;19915;-85
2023/08/26 13:50:45;;;;;;;;;;;30.40;46.20;;;29.64;49.59;100604.50;12134715;19;19930;-85
2023/08/26 13:54:46;;;;;;;;;;;30.40;46.80;;;29.60;49.32;100592.47;12124547;19;19926;-84
2023/08/26 13:58:48;;;;;;;;;;;30.40;45.90;;;29.59;49.36;100600.75;12136000;19;19925;-84
2023/08/26 14:02:49;;;;;;;;;;;30.40;46.20;;;29.65;48.78;100627.69;12133229;19;19925;-84
2023/08/26 14:06:51;;;;;;;;;;;30.40;47.20;;;29.59;49.10;100647.31;12132837;19;19951;-84
2023/08/26 14:10:53;;;;;;;;;;;30.40;46.80;;;29.46;49.16;100650.91;12147869;19;19918;-84
2023/08/26 14:14:55;;;;;;;;;;;30.30;46.40;;;29.22;48.99;100609.38;12144043;19;19918;-84
2023/08/26 14:18:57;;;;;;;;;;;30.20;47.00;;;29.22;48.76;100627.34;12146116;19;19923;-84
2023/08/26 14:22:58;;;;;;;;;;;30.10;47.40;;;29.25;48.74;100645.78;12140401;19;19919;-85
2023/08/26 14:26:59;;;;;;;;;;;30.10;47.40;;;29.29;48.54;100665.81;12134174;19;20298;-84
2023/08/26 14:31:01;;;;;;;;;;;30.00;47.20;;;29.09;48.37;100639.78;12140671;19;19918;-84
2023/08/26 14:35:03;;;;;;;;;;;29.90;47.00;;;29.24;48.57;100671.00;12126025;19;20214;-82
2023/08/26 14:39:05;;;;;;;;;;;29.90;47.10;;;29.09;48.10;100655.94;12131454;19;19943;-82
2023/08/26 14:43:06;;;;;;;;;;;29.80;47.30;;;29.00;48.62;100649.09;12128886;19;20904;-84
2023/08/26 14:47:09;;;;;;;;;;;29.70;47.10;;;28.83;48.20;100627.16;12124161;19;20269;-83
2023/08/26 14:51:10;;;;;;;;;;;29.60;47.10;;;28.95;48.32;100675.78;12125282;19;19931;-84
2023/08/26 14:55:11;;;;;;;;;;;29.60;47.20;;;28.98;48.40;100686.09;12118235;19;19926;-83
2023/08/26 14:59:13;;;;;;;;;;;29.50;47.20;;;28.95;48.37;100686.53;12126961;19;19934;-83
2023/08/26 15:03:14;;;;;;;;;;;29.50;46.90;;;28.88;48.10;100697.25;12120139;19;19949;-83
2023/08/26 15:07:16;;;;;;;;;;;29.40;46.90;;;28.74;48.04;100678.66;12123053;19;20314;-83
2023/08/26 15:11:18;;;;;;;;;;;29.40;47.10;;;28.69;48.24;100681.94;12123591;19;20303;-83
2023/08/26 15:15:19;;;;;;;;;;;29.30;46.50;;;28.59;47.86;100686.88;12120612;19;19965;-83
2023/08/26 15:19:21;;;;;;;;;;;29.20;46.40;;;28.49;47.87;100691.81;12126006;19;20364;-85
2023/08/26 15:23:23;;;;;;;;;;;29.10;46.60;;;28.40;47.74;100693.84;12119452;19;19922;-86
2023/08/26 15:27:58;;;;;;;;;;;29.00;46.60;;;28.34;47.71;100700.03;12119742;19;20650;-89
2023/08/26 15:32:02;;;;;;;;;;;28.90;46.40;;;28.22;47.62;100697.13;12123727;19;20684;-87
2023/08/26 15:36:04;;;;;;;;;;;28.80;46.10;;;28.12;47.67;100700.16;12144817;19;20719;-89
2023/08/26 15:40:06;;;;;;;;;;;28.70;46.10;;;28.04;47.49;100699.50;12142041;19;19923;-86
2023/08/26 15:44:07;;;;;;;;;;;28.60;46.10;;;27.82;47.60;100690.75;12133726;19;20351;-87
2023/08/26 15:48:09;;;;;;;;;;;28.50;45.90;;;27.82;47.36;100722.94;12124963;19;19947;-86
2023/08/26 15:52:10;;;;;;;;;;;28.40;45.60;;;27.65;47.37;100701.75;12121454;19;20378;-87
2023/08/26 15:56:12;;;;;;;;;;;28.30;45.70;;;27.56;47.02;100710.97;12106613;19;19955;-88
2023/08/26 16:01:54;;;;;;;;;;;28.10;45.70;;;27.50;47.63;100719.81;12183693;19;19994;-87
2023/08/26 16:05:56;;;;;;;;;;;28.00;45.30;;;27.13;47.19;100686.91;11974104;19;4135969;-87
2023/08/26 16:09:57;;;;;;;;;;;27.90;45.50;;;27.25;47.36;100736.34;12190206;19;19927;-86
2023/08/26 16:13:58;;;;;;;;;;;27.80;45.50;;;27.01;47.19;100699.22;12188856;19;20133;-86
2023/08/26 16:18:00;;;;;;;;;;;27.70;45.00;;;27.12;47.18;100734.34;12184135;19;20156;-86
2023/08/26 16:22:03;;;;;;;;;;;27.60;45.70;;;26.85;47.05;100684.22;12180404;19;20368;-88
2023/08/26 16:26:05;;;;;;;;;;;27.60;45.60;;;26.80;46.93;100681.28;12184531;19;19919;-87
2023/08/26 16:30:07;;;;;;;;;;;27.50;45.20;;;26.90;46.63;100701.38;12186607;19;20536;-87
2023/08/26 16:34:08;;;;;;;;;;;27.50;45.20;;;26.83;46.62;100703.16;12190634;19;19911;-88
2023/08/26 16:38:10;;;;;;;;;;;27.40;45.30;;;26.85;46.77;100713.69;12189282;19;19918;-87
2023/08/26 16:42:12;;;;;;;;;;;27.30;45.20;;;26.80;46.77;100703.53;12189999;19;20632;-87
2023/08/26 16:46:14;;;;;;;;;;;27.30;45.20;;;26.80;46.73;100724.16;12191255;19;20596;-87
2023/08/26 16:50:15;;;;;;;;;;;27.20;45.30;;;26.48;46.35;100681.56;12191366;19;19926;-87
2023/08/26 16:54:17;;;;;;;;;;;27.20;45.40;;;26.66;46.67;100709.81;12188544;19;19918;-88
2023/08/26 16:58:19;;;;;;;;;;;27.10;45.30;;;26.67;46.75;100709.59;12189657;19;20361;-86
2023/08/26 17:02:20;;;;;;;;;;;27.10;45.30;;;26.65;46.45;100702.78;12191979;19;20262;-86
2023/08/26 17:06:22;;;;;;;;;;;27.10;45.30;;;26.61;46.20;100705.00;12188085;19;19923;-86
2023/08/26 17:10:23;;;;;;;;;;;27.10;45.30;;;26.40;46.39;100686.22;12173474;19;19932;-87
2023/08/26 17:14:25;;;;;;;;;;;27.00;45.20;;;26.53;46.55;100733.78;12140015;19;20647;-87
2023/08/26 17:18:26;;;;;;;;;;;27.00;45.30;;;26.47;46.26;100741.50;12140307;19;19915;-87
2023/08/26 17:22:29;;;;;;;;;;;26.90;45.20;;;26.40;46.64;100753.16;12142893;19;20453;-87
2023/08/26 17:26:31;;;;;;;;;;;26.80;45.10;;;26.34;46.16;100770.81;12145380;19;19933;-87
2023/08/26 17:30:33;;;;;;;;;;;26.80;45.20;;;26.31;46.63;100744.41;12136534;19;19945;-87
2023/08/26 17:34:34;;;;;;;;;;;26.70;45.20;;;26.28;46.25;100744.78;12137483;19;19929;-87
2023/08/26 17:38:36;;;;;;;;;;;26.70;45.20;;;26.23;46.49;100776.66;12128510;19;19927;-87
2023/08/26 17:42:42;;;;;;;;;;;26.60;45.10;;;26.16;46.30;100787.25;12126074;19;20381;-87
2023/08/26 17:46:43;;;;;;;;;;;26.60;45.20;;;26.14;46.40;100785.78;12130959;19;19910;-87
2023/08/26 17:50:47;;;;;;;;;;;26.50;45.10;;;26.05;46.34;100772.47;12131605;19;20793;-86
2023/08/26 17:54:51;;;;;;;;;;;26.50;44.90;;;26.09;46.10;100777.50;12129644;19;19922;-87
2023/08/26 17:58:53;;;;;;;;;;;26.40;45.00;;;26.03;46.08;100789.75;12125114;19;19919;-87
2023/08/26 18:02:55;;;;;;;;;;;26.40;45.10;;;25.94;45.90;100780.97;12126866;19;20014;-87
2023/08/26 18:06:56;;;;;;;;;;;26.40;45.00;;;25.88;45.94;100770.19;12123848;19;20714;-87
2023/08/26 18:11:02;;;;;;;;;;;26.30;44.90;;;25.85;46.29;100773.25;12131598;19;19926;-87